createdAt,value
2018-05-26T00:02:09.704Z,15.70
2018-05-26T00:04:37.267Z,15.70
2018-05-26T00:07:04.819Z,15.70
2018-05-26T00:09:32.456Z,15.60
2018-05-26T00:12:00.027Z,15.60
2018-05-26T00:14:27.558Z,15.60
2018-05-26T00:16:55.161Z,15.60
2018-05-26T00:19:22.705Z,15.60
2018-05-26T00:21:50.311Z,15.60
2018-05-26T00:24:18.597Z,15.60
2018-05-26T00:26:46.941Z,15.60
2018-05-26T00:29:14.549Z,15.40
2018-05-26T00:31:42.131Z,15.60
2018-05-26T00:34:09.735Z,15.50
2018-05-26T00:36:37.323Z,15.60
2018-05-26T00:39:04.946Z,15.50
2018-05-26T00:41:32.491Z,15.60
2018-05-26T00:44:00.099Z,15.50
2018-05-26T00:46:28.451Z,15.50
2018-05-26T00:48:56.059Z,15.40
2018-05-26T00:51:23.586Z,15.50
2018-05-26T00:53:51.211Z,15.40
2018-05-26T00:56:18.753Z,15.30
2018-05-26T00:58:46.338Z,15.30
2018-05-26T01:01:14.662Z,15.30
2018-05-26T01:03:42.244Z,15.20
2018-05-26T01:06:09.887Z,15.30
2018-05-26T01:08:38.239Z,15.40
2018-05-26T01:11:05.871Z,15.30
2018-05-26T01:13:33.420Z,15.30
2018-05-26T01:16:00.944Z,15.30
2018-05-26T01:18:29.328Z,15.20
2018-05-26T01:20:56.873Z,15.10
2018-05-26T01:23:24.463Z,15.30
2018-05-26T01:25:51.975Z,15.30
2018-05-26T01:28:19.529Z,15.20
2018-05-26T01:30:47.111Z,15.20
2018-05-26T01:33:14.648Z,15.20
2018-05-26T01:35:42.166Z,15.10
2018-05-26T01:38:09.778Z,15.20
2018-05-26T01:40:37.364Z,15.00
2018-05-26T01:43:04.883Z,15.00
2018-05-26T01:45:33.191Z,15.00
2018-05-26T01:48:01.532Z,15.00
2018-05-26T01:50:29.078Z,14.90
2018-05-26T01:52:57.423Z,15.00
2018-05-26T01:55:25.023Z,14.90
2018-05-26T01:57:52.570Z,14.80
2018-05-26T02:00:20.205Z,14.80
2018-05-26T02:02:47.782Z,14.70
2018-05-26T02:05:15.383Z,14.70
2018-05-26T02:07:42.982Z,14.70
2018-05-26T02:10:10.573Z,14.70
2018-05-26T02:12:38.925Z,14.80
2018-05-26T02:15:06.492Z,14.70
2018-05-26T02:17:34.023Z,14.90
2018-05-26T02:20:01.609Z,14.90
2018-05-26T02:22:29.170Z,14.90
2018-05-26T02:24:56.731Z,14.90
2018-05-26T02:27:24.310Z,14.90
2018-05-26T02:29:55.426Z,14.90
2018-05-26T02:32:23.800Z,14.90
2018-05-26T02:34:51.396Z,14.90
2018-05-26T02:37:19.028Z,15.00
2018-05-26T02:39:46.619Z,14.90
2018-05-26T02:42:14.172Z,15.00
2018-05-26T02:44:42.558Z,15.00
2018-05-26T02:47:10.124Z,14.90
2018-05-26T02:49:37.712Z,14.90
2018-05-26T02:52:05.275Z,14.90
2018-05-26T02:54:32.802Z,14.90
2018-05-26T02:57:00.316Z,15.00
2018-05-26T02:59:27.859Z,15.00
2018-05-26T03:01:55.403Z,15.00
2018-05-26T03:04:28.645Z,15.00
2018-05-26T03:07:01.863Z,15.00
2018-05-26T03:09:35.142Z,15.10
2018-05-26T03:12:08.449Z,15.00
2018-05-26T03:14:41.580Z,15.00
2018-05-26T03:17:10.566Z,15.00
2018-05-26T03:19:38.921Z,15.00
2018-05-26T03:22:06.466Z,14.90
2018-05-26T03:24:34.100Z,15.00
2018-05-26T03:27:01.734Z,15.00
2018-05-26T03:29:29.539Z,15.00
2018-05-26T03:31:57.170Z,15.00
2018-05-26T03:34:24.799Z,15.00
2018-05-26T03:36:53.116Z,15.00
2018-05-26T03:39:20.663Z,14.90
2018-05-26T03:41:48.238Z,15.00
2018-05-26T03:44:15.801Z,15.00
2018-05-26T03:46:43.410Z,15.00
2018-05-26T03:49:10.974Z,15.00
2018-05-26T03:51:38.492Z,15.00
2018-05-26T03:54:06.036Z,15.00
2018-05-26T03:56:45.277Z,15.00
2018-05-26T03:59:19.630Z,15.00
2018-05-26T04:01:47.170Z,15.10
2018-05-26T04:04:15.567Z,15.30
2018-05-26T04:06:44.714Z,15.30
2018-05-26T04:09:12.255Z,15.30
2018-05-26T04:11:39.807Z,15.30
2018-05-26T04:14:07.407Z,15.50
2018-05-26T04:16:35.414Z,15.50
2018-05-26T04:19:02.972Z,15.60
2018-05-26T04:21:30.503Z,15.60
2018-05-26T04:23:58.857Z,15.80
2018-05-26T04:26:26.455Z,15.70
2018-05-26T04:28:54.049Z,16.10
2018-05-26T04:31:21.611Z,16.30
2018-05-26T04:33:49.197Z,16.60
2018-05-26T04:36:16.806Z,16.80
2018-05-26T04:38:44.632Z,17.30
2018-05-26T04:41:12.926Z,18.10
2018-05-26T04:43:41.266Z,18.60
2018-05-26T04:46:08.790Z,18.40
2018-05-26T04:48:36.340Z,18.60
2018-05-26T04:51:04.215Z,18.60
2018-05-26T04:53:31.758Z,18.40
2018-05-26T04:55:59.306Z,18.60
2018-05-26T04:58:26.882Z,18.30
2018-05-26T05:00:54.448Z,18.30
2018-05-26T05:03:22.058Z,18.70
2018-05-26T05:05:49.586Z,18.80
2018-05-26T05:08:17.115Z,18.90
2018-05-26T05:10:44.749Z,18.90
2018-05-26T05:13:12.264Z,18.90
2018-05-26T05:15:39.848Z,18.80
2018-05-26T05:18:07.379Z,18.90
2018-05-26T05:20:35.709Z,18.90
2018-05-26T05:23:04.047Z,19.30
2018-05-26T05:25:31.586Z,19.30
2018-05-26T05:27:59.110Z,19.80
2018-05-26T05:30:26.685Z,20.00
2018-05-26T05:32:54.332Z,20.10
2018-05-26T05:35:21.912Z,20.20
2018-05-26T05:37:49.452Z,20.20
2018-05-26T05:40:16.960Z,20.30
2018-05-26T05:42:44.800Z,20.20
2018-05-26T05:45:12.351Z,20.30
2018-05-26T05:47:39.950Z,20.20
2018-05-26T05:50:07.488Z,20.00
2018-05-26T05:52:36.315Z,19.80
2018-05-26T05:55:03.910Z,19.70
2018-05-26T05:57:32.243Z,19.60
2018-05-26T06:00:00.546Z,19.50
2018-05-26T06:02:28.855Z,19.60
2018-05-26T06:04:56.392Z,19.50
2018-05-26T06:07:23.985Z,20.10
2018-05-26T06:09:52.292Z,21.40
2018-05-26T06:12:19.900Z,21.30
2018-05-26T06:14:47.429Z,22.10
2018-05-26T06:17:15.051Z,23.20
2018-05-26T06:19:42.610Z,23.70
2018-05-26T06:22:10.204Z,24.20
2018-05-26T06:24:37.779Z,24.40
2018-05-26T06:27:05.360Z,23.80
2018-05-26T06:29:32.866Z,23.20
2018-05-26T06:32:00.439Z,22.90
2018-05-26T06:34:28.034Z,22.60
2018-05-26T06:36:55.558Z,22.20
2018-05-26T06:39:23.109Z,21.80
2018-05-26T06:41:50.654Z,21.50
2018-05-26T06:44:18.200Z,20.90
2018-05-26T06:46:45.819Z,20.10
2018-05-26T06:49:13.383Z,20.30
2018-05-26T06:51:40.915Z,20.20
2018-05-26T06:54:08.452Z,20.30
2018-05-26T06:56:36.051Z,20.30
2018-05-26T06:59:03.593Z,20.00
2018-05-26T07:01:31.900Z,19.60
2018-05-26T07:03:59.490Z,19.50
2018-05-26T07:06:27.259Z,19.20
2018-05-26T07:08:55.671Z,19.70
2018-05-26T07:11:23.232Z,19.70
2018-05-26T07:13:50.806Z,19.90
2018-05-26T07:16:18.368Z,19.60
2018-05-26T07:18:45.977Z,19.60
2018-05-26T07:21:13.550Z,19.80
2018-05-26T07:23:41.153Z,19.70
2018-05-26T07:26:08.701Z,19.80
2018-05-26T07:28:36.417Z,19.80
2018-05-26T07:31:04.066Z,19.90
2018-05-26T07:33:31.582Z,19.90
2018-05-26T07:35:59.194Z,20.00
2018-05-26T07:38:26.804Z,20.10
2018-05-26T07:40:54.416Z,20.30
2018-05-26T07:43:21.986Z,20.50
2018-05-26T07:45:49.567Z,20.70
2018-05-26T07:48:17.156Z,20.30
2018-05-26T07:50:44.743Z,20.20
2018-05-26T07:53:12.372Z,20.20
2018-05-26T07:55:39.935Z,20.30
2018-05-26T07:58:07.520Z,20.40
2018-05-26T08:00:35.155Z,20.50
2018-05-26T08:03:03.447Z,20.90
2018-05-26T08:05:31.742Z,21.10
2018-05-26T08:08:00.023Z,21.20
2018-05-26T08:10:27.599Z,21.20
2018-05-26T08:12:55.184Z,21.40
2018-05-26T08:15:22.790Z,21.50
2018-05-26T08:17:50.404Z,21.70
2018-05-26T08:20:17.929Z,21.80
2018-05-26T08:22:45.543Z,21.90
2018-05-26T08:25:13.133Z,21.70
2018-05-26T08:27:40.737Z,21.50
2018-05-26T08:30:08.325Z,21.30
2018-05-26T08:32:35.902Z,21.00
2018-05-26T08:35:03.517Z,21.10
2018-05-26T08:37:31.098Z,21.20
2018-05-26T08:39:58.682Z,21.40
2018-05-26T08:42:26.297Z,21.60
2018-05-26T08:44:53.916Z,21.80
2018-05-26T08:47:21.436Z,22.00
2018-05-26T08:49:49.050Z,21.60
2018-05-26T08:52:16.628Z,21.60
2018-05-26T08:54:44.277Z,21.80
2018-05-26T08:57:11.865Z,21.70
2018-05-26T08:59:39.444Z,21.60
2018-05-26T09:02:07.043Z,21.60
2018-05-26T09:04:34.577Z,21.60
2018-05-26T09:07:02.175Z,21.70
2018-05-26T09:09:29.687Z,21.80
2018-05-26T09:11:57.265Z,21.90
2018-05-26T09:14:24.791Z,22.00
2018-05-26T09:16:52.319Z,21.90
2018-05-26T09:19:19.932Z,21.90
2018-05-26T09:21:47.524Z,21.80
2018-05-26T09:24:15.109Z,22.00
2018-05-26T09:26:42.692Z,22.30
2018-05-26T09:29:10.235Z,22.50
2018-05-26T09:31:38.544Z,22.70
2018-05-26T09:34:06.090Z,22.60
2018-05-26T09:36:33.698Z,22.90
2018-05-26T09:39:02.028Z,22.90
2018-05-26T09:41:29.639Z,22.80
2018-05-26T09:43:57.206Z,22.80
2018-05-26T09:46:24.780Z,22.80
2018-05-26T09:48:52.617Z,22.70
2018-05-26T09:51:20.158Z,22.60
2018-05-26T09:53:47.669Z,22.50
2018-05-26T09:56:15.320Z,22.80
2018-05-26T09:58:42.901Z,23.00
2018-05-26T10:01:10.465Z,23.10
2018-05-26T10:03:38.015Z,23.20
2018-05-26T10:06:05.543Z,23.20
2018-05-26T10:08:33.724Z,23.20
2018-05-26T10:11:02.232Z,23.20
2018-05-26T10:13:30.593Z,23.00
2018-05-26T10:15:58.102Z,22.90
2018-05-26T10:18:25.683Z,23.00
2018-05-26T10:20:53.222Z,23.40
2018-05-26T10:23:20.762Z,23.70
2018-05-26T10:25:48.335Z,23.80
2018-05-26T10:28:15.941Z,23.70
2018-05-26T10:30:43.468Z,23.50
2018-05-26T10:33:11.012Z,23.80
2018-05-26T10:35:38.654Z,23.90
2018-05-26T10:38:06.210Z,24.10
2018-05-26T10:40:39.694Z,24.00
2018-05-26T10:43:07.313Z,23.80
2018-05-26T10:45:51.447Z,23.90
2018-05-26T10:48:19.118Z,23.90
2018-05-26T10:50:46.717Z,24.00
2018-05-26T10:53:14.339Z,24.00
2018-05-26T10:55:41.960Z,24.10
2018-05-26T10:58:09.511Z,24.10
2018-05-26T11:00:37.167Z,24.20
2018-05-26T11:03:05.522Z,24.20
2018-05-26T11:05:33.128Z,24.10
2018-05-26T11:08:00.711Z,24.30
2018-05-26T11:10:28.290Z,24.00
2018-05-26T11:12:55.832Z,23.90
2018-05-26T11:15:23.447Z,23.90
2018-05-26T11:17:51.175Z,24.00
2018-05-26T11:20:18.573Z,24.10
2018-05-26T11:22:46.929Z,24.00
2018-05-26T11:25:14.502Z,23.90
2018-05-26T11:27:42.098Z,24.20
2018-05-26T11:30:09.669Z,24.30
2018-05-26T11:32:37.214Z,24.40
2018-05-26T11:35:05.523Z,24.50
2018-05-26T11:37:33.064Z,24.40
2018-05-26T11:40:00.607Z,24.20
2018-05-26T11:42:28.199Z,23.90
2018-05-26T11:44:55.775Z,23.80
2018-05-26T11:47:23.286Z,23.80
2018-05-26T11:49:50.875Z,23.70
2018-05-26T11:52:18.443Z,23.90
2018-05-26T11:54:46.059Z,24.20
2018-05-26T11:57:13.571Z,24.30
2018-05-26T11:59:41.137Z,24.00
2018-05-26T12:02:09.514Z,23.80
2018-05-26T12:04:37.012Z,23.70
2018-05-26T12:07:04.567Z,23.90
2018-05-26T12:09:32.127Z,23.90
2018-05-26T12:11:59.725Z,23.90
2018-05-26T12:14:27.303Z,24.00
2018-05-26T12:16:54.888Z,24.20
2018-05-26T12:19:22.427Z,24.20
2018-05-26T12:21:50.731Z,24.10
2018-05-26T12:24:19.090Z,24.00
2018-05-26T12:26:46.688Z,23.90
2018-05-26T12:29:14.228Z,24.10
2018-05-26T12:31:41.757Z,24.10
2018-05-26T12:34:09.280Z,24.30
2018-05-26T12:36:36.860Z,24.40
2018-05-26T12:39:04.419Z,24.40
2018-05-26T12:41:31.943Z,24.60
2018-05-26T12:43:59.458Z,24.80
2018-05-26T12:46:26.979Z,24.80
2018-05-26T12:48:55.304Z,24.50
2018-05-26T12:51:22.828Z,24.40
2018-05-26T12:53:50.401Z,24.60
2018-05-26T12:56:17.909Z,24.60
2018-05-26T12:58:45.442Z,24.70
2018-05-26T13:01:13.052Z,24.70
2018-05-26T13:03:40.602Z,24.70
2018-05-26T13:06:08.240Z,24.80
2018-05-26T13:08:35.734Z,24.70
2018-05-26T13:11:03.292Z,24.70
2018-05-26T13:13:30.893Z,24.90
2018-05-26T13:15:58.438Z,25.00
2018-05-26T13:18:26.022Z,25.10
2018-05-26T13:20:53.557Z,25.10
2018-05-26T13:23:21.946Z,25.20
2018-05-26T13:25:49.528Z,25.10
2018-05-26T13:28:17.093Z,25.30
2018-05-26T13:30:44.671Z,25.20
2018-05-26T13:33:12.307Z,25.30
2018-05-26T13:35:40.613Z,25.10
2018-05-26T13:38:08.699Z,25.00
2018-05-26T13:40:36.226Z,24.90
2018-05-26T13:43:03.791Z,25.00
2018-05-26T13:45:31.287Z,25.20
2018-05-26T13:47:58.880Z,25.20
2018-05-26T13:50:26.443Z,25.40
2018-05-26T13:52:54.094Z,25.40
2018-05-26T13:55:21.634Z,25.40
2018-05-26T13:57:49.171Z,25.20
2018-05-26T14:00:16.677Z,25.10
2018-05-26T14:02:44.207Z,25.20
2018-05-26T14:05:11.831Z,25.20
2018-05-26T14:07:39.416Z,25.20
2018-05-26T14:10:07.001Z,25.50
2018-05-26T14:12:35.363Z,25.50
2018-05-26T14:15:02.955Z,25.40
2018-05-26T14:17:30.463Z,25.40
2018-05-26T14:19:58.848Z,25.40
2018-05-26T14:22:26.396Z,25.30
2018-05-26T14:24:53.904Z,25.50
2018-05-26T14:27:21.442Z,25.60
2018-05-26T14:29:49.811Z,25.50
2018-05-26T14:32:17.392Z,25.40
2018-05-26T14:34:44.918Z,25.40
2018-05-26T14:37:12.484Z,25.60
2018-05-26T14:39:40.075Z,25.70
2018-05-26T14:42:07.699Z,25.90
2018-05-26T14:44:35.430Z,25.90
2018-05-26T14:47:02.990Z,25.70
2018-05-26T14:49:30.648Z,25.50
2018-05-26T14:51:58.209Z,25.30
2018-05-26T14:54:25.800Z,25.10
2018-05-26T14:56:53.323Z,24.90
2018-05-26T14:59:20.867Z,24.70
2018-05-26T15:01:48.417Z,24.50
2018-05-26T15:04:16.043Z,24.40
2018-05-26T15:06:43.624Z,24.30
2018-05-26T15:09:11.244Z,24.30
2018-05-26T15:11:38.843Z,24.30
2018-05-26T15:14:06.364Z,24.20
2018-05-26T15:16:33.903Z,24.20
2018-05-26T15:19:01.644Z,24.10
2018-05-26T15:21:29.205Z,24.10
2018-05-26T15:23:56.727Z,24.20
2018-05-26T15:26:24.233Z,24.30
2018-05-26T15:28:52.498Z,24.40
2018-05-26T15:31:20.783Z,24.40
2018-05-26T15:33:49.050Z,24.50
2018-05-26T15:36:17.316Z,24.60
2018-05-26T15:38:44.835Z,24.50
2018-05-26T15:41:12.549Z,24.60
2018-05-26T15:43:40.826Z,24.70
2018-05-26T15:46:09.087Z,24.70
2018-05-26T15:48:36.603Z,24.60
2018-05-26T15:51:04.096Z,24.70
2018-05-26T15:53:31.609Z,24.70
2018-05-26T15:55:59.101Z,24.80
2018-05-26T15:58:26.593Z,24.70
2018-05-26T16:00:54.110Z,24.70
2018-05-26T16:03:21.607Z,24.70
2018-05-26T16:05:49.114Z,24.70
2018-05-26T16:08:16.606Z,24.70
2018-05-26T16:10:44.117Z,24.80
2018-05-26T16:13:11.601Z,24.80
2018-05-26T16:15:39.115Z,24.70
2018-05-26T16:18:07.384Z,24.60
2018-05-26T16:20:34.902Z,24.60
2018-05-26T16:23:02.403Z,24.70
2018-05-26T16:25:29.903Z,24.70
2018-05-26T16:27:57.411Z,24.70
2018-05-26T16:30:24.914Z,24.60
2018-05-26T16:32:52.429Z,24.70
2018-05-26T16:35:20.047Z,24.60
2018-05-26T16:37:47.558Z,24.70
2018-05-26T16:40:15.046Z,24.80
2018-05-26T16:42:42.567Z,24.90
2018-05-26T16:45:10.155Z,24.90
2018-05-26T16:47:38.422Z,25.00
2018-05-26T16:50:06.701Z,24.90
2018-05-26T16:52:34.957Z,25.00
2018-05-26T16:55:02.471Z,24.90
2018-05-26T16:57:29.962Z,24.90
2018-05-26T16:59:57.470Z,25.00
2018-05-26T17:02:25.776Z,24.90
2018-05-26T17:04:53.292Z,24.80
2018-05-26T17:07:20.789Z,24.90
2018-05-26T17:09:48.318Z,24.90
2018-05-26T17:12:16.575Z,24.90
2018-05-26T17:14:44.071Z,24.80
2018-05-26T17:17:11.589Z,24.80
2018-05-26T17:19:39.078Z,24.90
2018-05-26T17:22:07.346Z,24.80
2018-05-26T17:24:35.602Z,24.80
2018-05-26T17:27:03.904Z,24.80
2018-05-26T17:29:32.162Z,24.70
2018-05-26T17:31:59.677Z,24.60
2018-05-26T17:34:27.183Z,24.60
2018-05-26T17:36:54.698Z,24.50
2018-05-26T17:39:22.206Z,24.30
2018-05-26T17:41:50.471Z,24.00
2018-05-26T17:44:17.981Z,24.00
2018-05-26T17:46:45.489Z,23.90
2018-05-26T17:49:13.004Z,23.90
2018-05-26T17:51:40.501Z,23.80
2018-05-26T17:54:08.048Z,23.70
2018-05-26T17:56:35.537Z,23.70
2018-05-26T17:59:03.022Z,23.70
2018-05-26T18:01:31.298Z,23.70
2018-05-26T18:03:58.800Z,23.60
2018-05-26T18:06:26.306Z,23.60
2018-05-26T18:08:54.582Z,23.50
2018-05-26T18:11:22.107Z,23.40
2018-05-26T18:13:49.599Z,23.40
2018-05-26T18:16:17.905Z,23.20
2018-05-26T18:18:45.407Z,23.20
2018-05-26T18:21:12.946Z,23.10
2018-05-26T18:23:40.433Z,23.00
2018-05-26T18:26:07.927Z,23.00
2018-05-26T18:28:35.458Z,22.90
2018-05-26T18:31:02.972Z,22.80
2018-05-26T18:33:30.549Z,22.80
2018-05-26T18:35:58.047Z,22.70
2018-05-26T18:38:26.349Z,22.50
2018-05-26T18:40:54.602Z,22.30
2018-05-26T18:43:22.114Z,22.30
2018-05-26T18:45:49.605Z,22.20
2018-05-26T18:48:17.095Z,22.10
2018-05-26T18:50:45.378Z,21.90
2018-05-26T18:53:13.641Z,21.70
2018-05-26T18:55:41.936Z,21.60
2018-05-26T18:58:09.454Z,21.50
2018-05-26T19:00:36.978Z,21.50
2018-05-26T19:03:04.482Z,21.40
2018-05-26T19:05:31.997Z,21.30
2018-05-26T19:07:59.491Z,21.20
2018-05-26T19:10:26.997Z,21.10
2018-05-26T19:12:54.536Z,21.00
2018-05-26T19:15:22.806Z,20.80
2018-05-26T19:17:50.339Z,20.70
2018-05-26T19:20:17.862Z,20.80
2018-05-26T19:22:45.392Z,20.80
2018-05-26T19:25:13.671Z,20.70
2018-05-26T19:27:41.962Z,20.60
2018-05-26T19:30:09.466Z,20.40
2018-05-26T19:32:36.978Z,20.50
2018-05-26T19:35:05.243Z,20.30
2018-05-26T19:37:33.502Z,20.10
2018-05-26T19:40:01.018Z,20.10
2018-05-26T19:42:28.515Z,20.00
2018-05-26T19:44:56.034Z,20.00
2018-05-26T19:47:23.531Z,19.90
2018-05-26T19:49:51.070Z,19.90
2018-05-26T19:52:18.554Z,19.80
2018-05-26T19:54:46.143Z,19.80
2018-05-26T19:57:14.409Z,19.70
2018-05-26T19:59:41.902Z,19.60
2018-05-26T20:02:09.429Z,19.60
2018-05-26T20:04:36.925Z,19.50
2018-05-26T20:07:04.429Z,19.50
2018-05-26T20:09:31.929Z,19.40
2018-05-26T20:11:59.448Z,19.40
2018-05-26T20:14:26.956Z,19.40
2018-05-26T20:16:54.465Z,19.40
2018-05-26T20:19:21.961Z,19.30
2018-05-26T20:21:50.225Z,19.20
2018-05-26T20:24:18.506Z,19.20
2018-05-26T20:26:46.774Z,19.10
2018-05-26T20:29:15.049Z,19.10
2018-05-26T20:31:43.312Z,19.00
2018-05-26T20:34:11.049Z,18.90
2018-05-26T20:36:38.551Z,18.90
2018-05-26T20:39:06.069Z,18.90
2018-05-26T20:41:33.560Z,18.80
2018-05-26T20:44:01.074Z,18.80
2018-05-26T20:46:28.602Z,18.80
2018-05-26T20:48:56.876Z,18.70
2018-05-26T20:51:25.176Z,18.60
2018-05-26T20:53:52.661Z,18.50
2018-05-26T20:56:20.185Z,18.60
2018-05-26T20:58:47.697Z,18.50
2018-05-26T21:01:15.206Z,18.50
2018-05-26T21:03:42.709Z,18.50
2018-05-26T21:06:10.234Z,18.50
2018-05-26T21:08:37.756Z,18.50
2018-05-26T21:11:05.254Z,18.40
2018-05-26T21:13:32.822Z,18.40
2018-05-26T21:16:00.311Z,18.40
2018-05-26T21:18:27.827Z,18.40
2018-05-26T21:20:55.343Z,18.30
2018-05-26T21:23:22.833Z,18.30
2018-05-26T21:25:51.111Z,18.20
2018-05-26T21:28:19.375Z,18.20
2018-05-26T21:30:47.682Z,18.20
2018-05-26T21:33:15.169Z,18.10
2018-05-26T21:35:42.687Z,18.20
2018-05-26T21:38:10.940Z,18.10
2018-05-26T21:40:38.458Z,18.00
2018-05-26T21:43:05.961Z,18.10
2018-05-26T21:45:33.477Z,18.10
2018-05-26T21:48:00.979Z,18.00
2018-05-26T21:50:29.255Z,18.10
2018-05-26T21:52:56.770Z,18.00
2018-05-26T21:55:24.270Z,18.00
2018-05-26T21:57:51.788Z,18.00
2018-05-26T22:00:19.284Z,18.00
2018-05-26T22:02:46.806Z,18.00
2018-05-26T22:05:14.302Z,18.00
2018-05-26T22:07:41.823Z,18.00
2018-05-26T22:10:09.336Z,18.00
2018-05-26T22:12:37.639Z,17.90
2018-05-26T22:15:05.126Z,17.80
2018-05-26T22:17:32.629Z,17.90
2018-05-26T22:20:00.931Z,17.90
2018-05-26T22:22:28.489Z,17.80
2018-05-26T22:24:56.014Z,17.90
2018-05-26T22:27:23.516Z,17.90
2018-05-26T22:29:51.254Z,17.90
2018-05-26T22:32:18.748Z,17.90
2018-05-26T22:34:46.291Z,17.80
2018-05-26T22:37:13.855Z,17.90
2018-05-26T22:39:41.354Z,17.90
2018-05-26T22:42:08.870Z,17.90
2018-05-26T22:44:37.188Z,17.80
2018-05-26T22:47:04.728Z,17.80
2018-05-26T22:49:32.237Z,17.90
2018-05-26T22:51:59.760Z,17.90
2018-05-26T22:54:27.273Z,17.80
2018-05-26T22:56:54.811Z,17.90
2018-05-26T22:59:22.334Z,17.90
2018-05-26T23:01:49.834Z,17.80
2018-05-26T23:04:17.360Z,17.80
2018-05-26T23:06:44.864Z,17.80
2018-05-26T23:09:13.159Z,17.70
2018-05-26T23:11:41.424Z,17.70
2018-05-26T23:14:09.691Z,17.70
2018-05-26T23:16:37.206Z,17.60
2018-05-26T23:19:04.697Z,17.70
2018-05-26T23:21:32.214Z,17.70
2018-05-26T23:24:00.479Z,17.60
2018-05-26T23:26:28.015Z,17.50
2018-05-26T23:28:55.511Z,17.60
2018-05-26T23:31:23.004Z,17.60
2018-05-26T23:33:50.522Z,17.50
2018-05-26T23:36:18.023Z,17.40
2018-05-26T23:38:45.556Z,17.40
2018-05-26T23:41:13.051Z,17.40
2018-05-26T23:43:40.560Z,17.40
2018-05-26T23:46:08.065Z,17.40
2018-05-26T23:48:35.621Z,17.30
2018-05-26T23:51:03.099Z,17.30
2018-05-26T23:53:30.627Z,17.20
2018-05-26T23:55:58.142Z,17.20
2018-05-26T23:58:26.435Z,17.20
